IN62 weather

Tropria Airport
Churubusco, Indiana, United States

Public forecast

Using degrees Fahrenheit for public forecast. Weather courtesy of forecast.io.

METAR (pilot weather report)

Closest report is De Kalb County Airport, 11.2 nm (20.7 km) ENE. Retrieved 2019/04/23 18:15 UTC (0 seconds ago):

KGWB 231815Z AUTO 28016G21KT 10SM BKN019 OVC031 12/07 A2999 RMK AO2

TAF (pilot weather forecast)

Closest forecast is Fort Wayne International Airport, 16.6 nm (30.8 km) SSE. Retrieved 2019/04/23 18:34 UTC (0 seconds ago):

TAF KFWA 231732Z 2318/2418 32013G20KT P6SM FEW010 OVC016 FM232200 30011KT P6SM SCT020 FM240300 VRB03KT P6SM SKC